Time;durP1;ratioP1;P1;durP2;ratioP2;P2;SDS_P1;SDS_P2;PMS_P1;PMS_P2;Temp;Humidity;BMP_temperature;BMP_pressure;BME280_temperature;BME280_humidity;BME280_pressure;Samples;Min_cycle;Max_cycle;Signal;HPM_P1;HPM_P2
2023/03/24 00:01:20;;;;;;;;;;;;;;;16.97;47.80;100574.31;5046792;28;19925;-85
2023/03/24 00:03:47;;;;;;;;;;;;;;;16.98;47.87;100573.19;5049875;28;19925;-85
2023/03/24 00:06:13;;;;;;;;;;;;;;;16.98;47.72;100569.69;5046141;28;19917;-85
2023/03/24 00:08:40;;;;;;;;;;;;;;;16.93;47.62;100565.16;5050683;28;19968;-85
2023/03/24 00:11:10;;;;;;;;;;;;;;;16.88;47.57;100562.56;5049050;28;19915;-85
2023/03/24 00:13:36;;;;;;;;;;;;;;;16.82;47.76;100561.00;5049762;28;19963;-85
2023/03/24 00:16:03;;;;;;;;;;;;;;;16.76;47.87;100556.78;5045842;28;19985;-85
2023/03/24 00:18:29;;;;;;;;;;;;;;;16.73;47.76;100565.47;5049374;28;20011;-85
2023/03/24 00:20:57;;;;;;;;;;;;;;;16.70;47.82;100558.75;5050110;28;19988;-85
2023/03/24 00:23:23;;;;;;;;;;;;;;;16.69;47.82;100548.22;5050377;28;19905;-85
2023/03/24 00:25:57;;;;;;;;;;;;;;;16.68;47.88;100552.81;5050077;28;19916;-85
2023/03/24 00:28:23;;;;;;;;;;;;;;;16.66;47.94;100543.34;5050368;28;19913;-85
2023/03/24 00:30:52;;;;;;;;;;;;;;;16.63;48.10;100533.94;5051266;28;19936;-85
2023/03/24 00:33:17;;;;;;;;;;;;;;;16.62;47.79;100538.53;5050609;28;19948;-84
2023/03/24 00:35:43;;;;;;;;;;;;;;;16.61;47.87;100534.22;5050286;28;19933;-85
2023/03/24 00:38:09;;;;;;;;;;;;;;;16.59;47.96;100524.81;5050744;28;20019;-85
2023/03/24 00:40:34;;;;;;;;;;;;;;;16.57;47.82;100524.28;5050558;28;19940;-85
2023/03/24 00:43:00;;;;;;;;;;;;;;;16.54;47.94;100520.28;5051344;28;19925;-85
2023/03/24 00:45:28;;;;;;;;;;;;;;;16.51;47.98;100515.44;5049670;28;19909;-84
2023/03/24 00:47:56;;;;;;;;;;;;;;;16.50;48.07;100526.53;5051021;28;20097;-85
2023/03/24 00:50:25;;;;;;;;;;;;;;;16.48;48.05;100526.03;5051431;28;19975;-84
2023/03/24 00:52:51;;;;;;;;;;;;;;;16.44;48.23;100506.91;5048959;28;20021;-85
2023/03/24 00:55:16;;;;;;;;;;;;;;;16.44;48.21;100500.69;5050628;28;19998;-85
2023/03/24 00:57:49;;;;;;;;;;;;;;;16.44;48.40;100501.50;5050201;28;19956;-85
2023/03/24 01:00:19;;;;;;;;;;;;;;;16.44;48.42;100498.78;5033238;28;19913;-85
2023/03/24 01:02:52;;;;;;;;;;;;;;;16.44;48.50;100497.97;5050608;28;19925;-85
2023/03/24 01:05:19;;;;;;;;;;;;;;;16.49;48.67;100495.19;5050368;28;20081;-85
2023/03/24 01:07:45;;;;;;;;;;;;;;;16.51;48.66;100485.69;5049616;28;19927;-85
2023/03/24 01:10:12;;;;;;;;;;;;;;;16.54;48.73;100484.31;5048818;28;19925;-85
2023/03/24 01:12:37;;;;;;;;;;;;;;;16.56;48.76;100482.94;5050286;28;19905;-85
2023/03/24 01:15:05;;;;;;;;;;;;;;;16.56;48.64;100472.09;5049809;28;19924;-85
2023/03/24 01:17:31;;;;;;;;;;;;;;;16.59;48.70;100468.81;5047673;28;20334;-85
2023/03/24 01:19:56;;;;;;;;;;;;;;;16.60;48.75;100458.78;5048962;28;19921;-85
2023/03/24 01:22:25;;;;;;;;;;;;;;;16.60;48.63;100467.72;5050555;28;19952;-85
2023/03/24 01:24:51;;;;;;;;;;;;;;;16.60;48.67;100454.19;5050193;28;19932;-85
2023/03/24 01:27:17;;;;;;;;;;;;;;;16.60;48.61;100458.78;5049094;28;19921;-85
2023/03/24 01:29:44;;;;;;;;;;;;;;;16.58;48.66;100456.38;5051153;28;19940;-85
2023/03/24 01:32:10;;;;;;;;;;;;;;;16.55;48.81;100451.56;5050160;28;19913;-85
2023/03/24 01:34:35;;;;;;;;;;;;;;;16.53;48.58;100451.06;5049334;28;19931;-85
2023/03/24 01:37:00;;;;;;;;;;;;;;;16.50;48.68;100443.50;5049157;28;19921;-85
2023/03/24 01:39:26;;;;;;;;;;;;;;;16.48;48.77;100444.91;5048209;28;19924;-85
2023/03/24 01:41:51;;;;;;;;;;;;;;;16.44;48.65;100446.59;5045558;28;19917;-85
2023/03/24 01:44:28;;;;;;;;;;;;;;;16.41;48.54;100448.00;5048264;28;19925;-85
2023/03/24 01:46:54;;;;;;;;;;;;;;;16.39;48.64;100435.88;5049033;28;19939;-85
2023/03/24 01:49:21;;;;;;;;;;;;;;;16.37;48.75;100436.16;5047839;28;19924;-84
2023/03/24 01:51:49;;;;;;;;;;;;;;;16.37;48.75;100429.97;5047091;28;19925;-86
2023/03/24 01:54:19;;;;;;;;;;;;;;;16.39;48.99;100438.56;5050285;28;19932;-85
2023/03/24 01:56:47;;;;;;;;;;;;;;;16.43;48.96;100429.56;5031831;28;19974;-86
2023/03/24 01:59:16;;;;;;;;;;;;;;;16.44;49.01;100428.47;5049429;28;19913;-85
2023/03/24 02:01:41;;;;;;;;;;;;;;;16.46;48.80;100420.88;5047207;28;19913;-85
2023/03/24 02:04:07;;;;;;;;;;;;;;;16.48;48.91;100425.97;5048531;28;19940;-85
2023/03/24 02:06:34;;;;;;;;;;;;;;;16.48;48.85;100426.78;5047021;28;19948;-85
2023/03/24 02:09:03;;;;;;;;;;;;;;;16.51;48.97;100417.28;5031062;28;19929;-86
2023/03/24 02:11:30;;;;;;;;;;;;;;;16.51;49.03;100412.66;5048938;28;19939;-85
2023/03/24 02:13:56;;;;;;;;;;;;;;;16.53;48.95;100405.09;5047510;28;19945;-85
2023/03/24 02:16:40;;;;;;;;;;;;;;;16.53;49.01;100399.69;5048843;28;19926;-85
2023/03/24 02:19:36;;;;;;;;;;;;;;;16.54;49.09;100397.78;5046245;28;19955;-86
2023/03/24 02:22:20;;;;;;;;;;;;;;;16.57;49.04;100397.19;5050990;28;19924;-85
2023/03/24 02:25:05;;;;;;;;;;;;;;;16.59;49.29;100394.97;5053056;28;19944;-85
2023/03/24 02:27:44;;;;;;;;;;;;;;;16.61;49.00;100390.06;5054105;28;19948;-85
2023/03/24 02:30:25;;;;;;;;;;;;;;;16.63;48.89;100377.84;5053082;28;19921;-85
2023/03/24 02:32:53;;;;;;;;;;;;;;;16.65;49.14;100371.34;5049923;28;19916;-85
2023/03/24 02:35:37;;;;;;;;;;;;;;;16.65;49.08;100360.53;5054996;28;19913;-85
2023/03/24 02:38:21;;;;;;;;;;;;;;;16.66;49.10;100356.72;5053004;28;19956;-85
2023/03/24 02:40:55;;;;;;;;;;;;;;;16.65;48.94;100344.28;5051907;28;19937;-85
2023/03/24 02:43:30;;;;;;;;;;;;;;;16.65;49.16;100336.19;5051490;28;19913;-85
2023/03/24 02:46:18;;;;;;;;;;;;;;;16.65;49.34;100333.47;5053690;28;20514;-85
2023/03/24 02:48:53;;;;;;;;;;;;;;;16.66;49.19;100316.94;5053031;28;20040;-84
2023/03/24 02:51:26;;;;;;;;;;;;;;;16.66;49.20;100310.72;5053751;28;19905;-85
2023/03/24 02:54:06;;;;;;;;;;;;;;;16.68;49.16;100293.13;5051485;28;19931;-85
2023/03/24 02:56:43;;;;;;;;;;;;;;;16.71;49.28;100300.66;5052891;28;19936;-85
2023/03/24 02:59:11;;;;;;;;;;;;;;;16.75;49.26;100293.56;5051465;28;19921;-85
2023/03/24 03:01:43;;;;;;;;;;;;;;;16.79;48.96;100285.63;5053210;28;20428;-85
2023/03/24 03:04:14;;;;;;;;;;;;;;;16.77;48.97;100290.53;5051229;28;19921;-85
2023/03/24 03:06:42;;;;;;;;;;;;;;;16.78;49.18;100292.94;5052596;28;19936;-85
2023/03/24 03:09:13;;;;;;;;;;;;;;;16.78;48.96;100297.56;5048112;28;19932;-85
2023/03/24 03:11:41;;;;;;;;;;;;;;;16.78;48.92;100294.84;5053512;28;19972;-85
2023/03/24 03:14:27;;;;;;;;;;;;;;;16.78;48.91;100294.84;5052364;28;19937;-85
2023/03/24 03:17:04;;;;;;;;;;;;;;;16.76;48.78;100289.75;5050944;28;19940;-85
2023/03/24 03:19:29;;;;;;;;;;;;;;;16.73;49.00;100286.84;5051250;28;20036;-85
2023/03/24 03:21:55;;;;;;;;;;;;;;;16.72;49.12;100282.53;5050048;28;19947;-85
2023/03/24 03:24:31;;;;;;;;;;;;;;;16.74;48.94;100285.75;5051532;28;19917;-85
2023/03/24 03:27:01;;;;;;;;;;;;;;;16.72;48.95;100274.41;5052252;28;20009;-85
2023/03/24 03:29:28;;;;;;;;;;;;;;;16.72;48.80;100263.59;5050631;28;19933;-84
2023/03/24 03:32:06;;;;;;;;;;;;;;;16.69;48.94;100270.38;5051713;28;19917;-85
2023/03/24 03:34:37;;;;;;;;;;;;;;;16.62;48.89;100259.16;5050015;28;19921;-85
2023/03/24 03:37:17;;;;;;;;;;;;;;;16.59;48.79;100257.84;5048318;28;19913;-85
2023/03/24 03:39:51;;;;;;;;;;;;;;;16.52;49.34;100252.03;5048726;28;19925;-85
2023/03/24 03:42:17;;;;;;;;;;;;;;;16.52;48.96;100254.75;5048912;28;19928;-86
2023/03/24 03:44:43;;;;;;;;;;;;;;;16.49;49.10;100246.41;5048980;28;19928;-85
2023/03/24 03:47:08;;;;;;;;;;;;;;;16.47;49.15;100245.91;5032552;28;20627;-84
2023/03/24 03:49:35;;;;;;;;;;;;;;;16.48;49.08;100245.59;5050002;28;19920;-85
2023/03/24 03:52:00;;;;;;;;;;;;;;;16.46;49.23;100247.81;5049187;28;19988;-86
2023/03/24 03:54:27;;;;;;;;;;;;;;;16.44;49.36;100238.41;5050848;28;19921;-85
2023/03/24 03:56:53;;;;;;;;;;;;;;;16.49;49.21;100241.00;5049250;28;20029;-85
2023/03/24 03:59:23;;;;;;;;;;;;;;;16.53;49.06;100242.81;5050639;28;19913;-84
2023/03/24 04:01:48;;;;;;;;;;;;;;;16.51;49.27;100245.00;5046614;28;19985;-86
2023/03/24 04:04:36;;;;;;;;;;;;;;;16.53;49.04;100237.41;5047483;28;19913;-85
2023/03/24 04:07:11;;;;;;;;;;;;;;;16.49;49.42;100233.69;5048523;28;20156;-85
2023/03/24 04:09:46;;;;;;;;;;;;;;;16.51;49.39;100227.97;5029320;28;19928;-87
2023/03/24 04:12:14;;;;;;;;;;;;;;;16.54;49.37;100230.91;5026237;28;20291;-88
2023/03/24 04:14:49;;;;;;;;;;;;;;;16.56;49.54;100222.50;5024147;28;19921;-87
2023/03/24 04:17:29;;;;;;;;;;;;;;;16.59;49.47;100225.38;5023060;28;19990;-88
2023/03/24 04:19:54;;;;;;;;;;;;;;;16.56;49.75;100215.19;5025673;28;19975;-87
2023/03/24 04:22:20;;;;;;;;;;;;;;;16.61;49.78;100217.78;5023868;28;19969;-86
2023/03/24 04:24:50;;;;;;;;;;;;;;;16.66;49.57;100216.88;5026234;28;19923;-87
2023/03/24 04:27:37;;;;;;;;;;;;;;;16.70;49.63;100215.22;5021682;28;20382;-86
2023/03/24 04:30:13;;;;;;;;;;;;;;;16.74;49.62;100204.59;5025160;28;20055;-87
2023/03/24 04:32:40;;;;;;;;;;;;;;;16.76;49.49;100207.78;5023987;28;19917;-86
2023/03/24 04:35:11;;;;;;;;;;;;;;;16.76;49.60;100208.59;5024152;28;19921;-86
2023/03/24 04:37:37;;;;;;;;;;;;;;;16.82;49.38;100212.78;5023737;28;20424;-87
2023/03/24 04:40:06;;;;;;;;;;;;;;;16.84;49.32;100207.88;5027138;28;19917;-86
2023/03/24 04:42:34;;;;;;;;;;;;;;;16.90;49.33;100201.25;5022774;28;19928;-88
2023/03/24 04:45:01;;;;;;;;;;;;;;;16.90;49.25;100197.75;5021691;28;19925;-86
2023/03/24 04:47:30;;;;;;;;;;;;;;;16.87;49.62;100193.72;5025771;28;19921;-87
2023/03/24 04:50:00;;;;;;;;;;;;;;;16.83;49.61;100187.31;5026074;28;19928;-86
2023/03/24 04:52:26;;;;;;;;;;;;;;;16.83;49.75;100173.00;5024675;28;19924;-86
2023/03/24 04:54:52;;;;;;;;;;;;;;;16.87;49.67;100176.69;5022452;28;19986;-86
2023/03/24 04:57:17;;;;;;;;;;;;;;;16.90;49.69;100165.28;5025147;28;20337;-86
2023/03/24 04:59:43;;;;;;;;;;;;;;;16.90;49.71;100168.78;5026029;28;19928;-86
2023/03/24 05:02:08;;;;;;;;;;;;;;;16.86;49.98;100158.84;5022394;28;20279;-86
2023/03/24 05:04:35;;;;;;;;;;;;;;;16.90;49.92;100157.97;5021963;28;20156;-86
2023/03/24 05:07:02;;;;;;;;;;;;;;;16.96;49.98;100137.00;5021616;28;19963;-87
2023/03/24 05:09:30;;;;;;;;;;;;;;;16.97;49.92;100138.59;5023527;28;19936;-86
2023/03/24 05:11:56;;;;;;;;;;;;;;;16.98;49.90;100133.97;5024432;28;19963;-86
2023/03/24 05:14:21;;;;;;;;;;;;;;;17.02;49.78;100134.97;5023664;28;19925;-86
2023/03/24 05:16:50;;;;;;;;;;;;;;;17.02;50.01;100140.38;5022026;28;19964;-86
2023/03/24 05:19:15;;;;;;;;;;;;;;;17.05;50.00;100137.84;5022548;28;19920;-86
2023/03/24 05:21:41;;;;;;;;;;;;;;;17.03;49.92;100139.28;5022916;28;19924;-86
2023/03/24 05:24:06;;;;;;;;;;;;;;;17.00;50.19;100132.56;5021878;28;19987;-86
2023/03/24 05:26:32;;;;;;;;;;;;;;;17.02;50.26;100124.16;5023813;28;19917;-86
2023/03/24 05:28:57;;;;;;;;;;;;;;;16.99;50.36;100117.44;5022098;28;19921;-86
2023/03/24 05:31:23;;;;;;;;;;;;;;;17.00;50.53;100115.53;5005694;28;19936;-86
2023/03/24 05:33:48;;;;;;;;;;;;;;;17.05;50.50;100118.91;5021593;28;20263;-87
2023/03/24 05:36:14;;;;;;;;;;;;;;;17.06;50.51;100127.84;5023101;28;19923;-86
2023/03/24 05:38:39;;;;;;;;;;;;;;;17.09;50.67;100129.94;5022597;28;20295;-86
2023/03/24 05:41:05;;;;;;;;;;;;;;;17.09;50.56;100119.13;5024016;28;19936;-86
2023/03/24 05:43:31;;;;;;;;;;;;;;;17.12;50.58;100124.72;5022969;28;19921;-86
2023/03/24 05:45:58;;;;;;;;;;;;;;;17.14;50.62;100110.88;5022572;28;19970;-86
2023/03/24 05:48:24;;;;;;;;;;;;;;;17.18;50.75;100119.97;5022250;28;19917;-86
2023/03/24 05:50:50;;;;;;;;;;;;;;;17.16;50.66;100104.03;5022357;28;19928;-86
2023/03/24 05:53:16;;;;;;;;;;;;;;;17.17;50.52;100100.22;5005709;28;19978;-86
2023/03/24 05:55:41;;;;;;;;;;;;;;;17.25;50.57;100106.03;5023603;28;20008;-86
2023/03/24 05:58:06;;;;;;;;;;;;;;;17.25;50.60;100095.19;5023152;28;19925;-86
2023/03/24 06:00:32;;;;;;;;;;;;;;;17.30;50.38;100097.78;5021669;28;19925;-86
2023/03/24 06:02:58;;;;;;;;;;;;;;;17.32;50.57;100087.44;5021561;28;19961;-86
2023/03/24 06:05:23;;;;;;;;;;;;;;;17.36;50.51;100101.94;5021885;28;19918;-86
2023/03/24 06:07:49;;;;;;;;;;;;;;;17.38;50.50;100095.13;5022980;28;19924;-86
2023/03/24 06:10:17;;;;;;;;;;;;;;;17.41;50.64;100101.81;5022856;28;20505;-87
2023/03/24 06:12:43;;;;;;;;;;;;;;;17.42;50.53;100093.41;5022781;28;20295;-86
2023/03/24 06:15:08;;;;;;;;;;;;;;;17.43;50.67;100086.88;5020804;28;19936;-86
2023/03/24 06:17:33;;;;;;;;;;;;;;;17.47;50.57;100085.16;5020664;28;19921;-86
2023/03/24 06:20:04;;;;;;;;;;;;;;;17.48;50.72;100084.03;5021128;28;19920;-86
2023/03/24 06:22:32;;;;;;;;;;;;;;;17.56;50.46;100085.19;5023096;28;20055;-86
2023/03/24 06:25:01;;;;;;;;;;;;;;;17.53;50.56;100085.81;5004061;28;19921;-86
2023/03/24 06:27:29;;;;;;;;;;;;;;;17.51;50.58;100082.63;5000912;28;19917;-86
2023/03/24 06:29:57;;;;;;;;;;;;;;;17.51;50.40;100074.50;5004785;28;20008;-86
2023/03/24 06:32:23;;;;;;;;;;;;;;;17.64;50.43;100076.31;5018525;28;19936;-86
2023/03/24 06:34:48;;;;;;;;;;;;;;;17.59;50.59;100070.22;5018713;28;19928;-86
2023/03/24 06:37:14;;;;;;;;;;;;;;;17.60;50.87;100079.97;5004519;28;20283;-86
2023/03/24 06:39:39;;;;;;;;;;;;;;;17.63;50.90;100074.72;5023570;28;19927;-86
2023/03/24 06:42:05;;;;;;;;;;;;;;;17.69;50.79;100073.50;5022114;28;19929;-85
2023/03/24 06:44:30;;;;;;;;;;;;;;;17.73;50.74;100060.91;5019771;28;20460;-85
2023/03/24 06:46:55;;;;;;;;;;;;;;;17.81;50.64;100081.84;5021727;28;20016;-85
2023/03/24 06:49:21;;;;;;;;;;;;;;;17.80;50.83;100069.41;5021164;28;19917;-85
2023/03/24 06:51:47;;;;;;;;;;;;;;;17.84;50.77;100058.75;5021171;28;19972;-86
2023/03/24 06:54:12;;;;;;;;;;;;;;;17.86;50.77;100051.09;5020848;28;19929;-87
2023/03/24 06:56:37;;;;;;;;;;;;;;;17.92;50.67;100051.75;5020314;28;20152;-86
2023/03/24 06:59:05;;;;;;;;;;;;;;;17.87;50.82;100054.59;5022488;28;19987;-86
2023/03/24 07:01:48;;;;;;;;;;;;;;;17.93;50.79;100045.22;5019551;28;20012;-85
2023/03/24 07:07:32;;;;;;;;;;;;;;;17.98;50.87;100031.53;4965086;28;20401;-85
2023/03/24 07:10:05;;;;;;;;;;;;;;;18.02;50.84;100029.78;5024895;28;19996;-87
2023/03/24 07:12:30;;;;;;;;;;;;;;;18.05;50.83;100031.88;5027345;28;19925;-86
2023/03/24 07:14:56;;;;;;;;;;;;;;;18.09;50.56;100038.25;5025387;28;19940;-86
2023/03/24 07:17:22;;;;;;;;;;;;;;;18.09;50.52;100032.81;5025690;28;20166;-85
2023/03/24 07:19:47;;;;;;;;;;;;;;;18.08;50.66;100021.19;5024913;28;19972;-85
2023/03/24 07:22:12;;;;;;;;;;;;;;;18.05;50.88;100021.03;5023174;28;20075;-87
2023/03/24 07:24:38;;;;;;;;;;;;;;;18.02;51.23;100022.47;5022311;28;20425;-87
2023/03/24 07:27:03;;;;;;;;;;;;;;;18.06;50.99;100028.84;5025838;28;20198;-86
2023/03/24 07:29:29;;;;;;;;;;;;;;;18.12;50.87;100016.72;5023701;28;20371;-86
2023/03/24 07:31:57;;;;;;;;;;;;;;;18.06;50.96;100004.44;5023956;28;20406;-86
2023/03/24 07:34:29;;;;;;;;;;;;;;;18.14;51.01;100007.50;5026318;28;19921;-86
2023/03/24 07:36:55;;;;;;;;;;;;;;;18.11;51.11;100009.72;5026133;28;20420;-85
2023/03/24 07:39:21;;;;;;;;;;;;;;;18.14;51.35;100010.22;5029235;28;19949;-87
2023/03/24 07:41:47;;;;;;;;;;;;;;;18.17;51.18;100015.81;5028040;28;19921;-85
2023/03/24 07:44:12;;;;;;;;;;;;;;;18.13;51.09;100006.69;5010811;28;20406;-85
2023/03/24 07:46:38;;;;;;;;;;;;;;;18.22;51.24;100015.63;5028003;28;19924;-86
2023/03/24 07:49:03;;;;;;;;;;;;;;;18.21;51.27;100014.03;5027794;28;20206;-87
2023/03/24 07:51:28;;;;;;;;;;;;;;;18.25;51.41;100011.50;5029876;28;20145;-86
2023/03/24 07:53:54;;;;;;;;;;;;;;;18.27;51.14;100012.75;5025886;28;20445;-87
2023/03/24 07:56:20;;;;;;;;;;;;;;;18.24;51.55;99997.13;5028998;28;20301;-85
2023/03/24 07:58:46;;;;;;;;;;;;;;;18.27;51.46;100001.91;5027503;28;20283;-87
2023/03/24 08:01:11;;;;;;;;;;;;;;;18.27;51.56;99998.41;5027828;28;19933;-87
2023/03/24 08:03:37;;;;;;;;;;;;;;;18.34;51.72;99996.84;5026539;28;19947;-86
2023/03/24 08:06:03;;;;;;;;;;;;;;;18.38;51.65;99989.66;5019321;28;19928;-86
2023/03/24 08:08:29;;;;;;;;;;;;;;;18.46;51.54;99989.97;5011477;28;19933;-86
2023/03/24 08:10:55;;;;;;;;;;;;;;;18.55;51.68;99979.94;5021836;28;19917;-87
2023/03/24 08:13:21;;;;;;;;;;;;;;;18.65;51.66;99979.63;5025244;28;19926;-87
2023/03/24 08:15:46;;;;;;;;;;;;;;;18.82;51.41;99979.59;5018000;28;20376;-86
2023/03/24 08:18:12;;;;;;;;;;;;;;;18.90;51.17;99973.38;5025870;28;19921;-86
2023/03/24 08:20:37;;;;;;;;;;;;;;;18.93;51.14;99964.59;5028305;28;19983;-86
2023/03/24 08:23:03;;;;;;;;;;;;;;;18.99;51.08;99957.88;5027040;28;19921;-87
2023/03/24 08:25:29;;;;;;;;;;;;;;;19.03;51.38;99966.19;5025601;28;19921;-87
2023/03/24 08:27:55;;;;;;;;;;;;;;;19.07;50.72;99958.97;5026387;28;19971;-85
2023/03/24 08:30:22;;;;;;;;;;;;;;;19.13;50.50;99951.44;5028174;28;19917;-85
2023/03/24 08:32:52;;;;;;;;;;;;;;;19.10;50.77;99952.09;5027277;28;20012;-88
2023/03/24 08:35:19;;;;;;;;;;;;;;;19.07;51.00;99941.91;5025025;28;19964;-86
2023/03/24 08:37:44;;;;;;;;;;;;;;;19.13;50.91;99927.81;5026364;28;19917;-86
2023/03/24 08:40:17;;;;;;;;;;;;;;;19.13;51.00;99919.66;5026459;28;19916;-85
2023/03/24 08:42:44;;;;;;;;;;;;;;;19.15;50.82;99935.63;5020975;28;20458;-85
2023/03/24 08:45:11;;;;;;;;;;;;;;;19.09;50.89;99935.00;5024676;28;19928;-85
2023/03/24 08:47:36;;;;;;;;;;;;;;;19.17;50.72;99979.53;5024404;28;20299;-86
2023/03/24 08:50:02;;;;;;;;;;;;;;;19.13;50.62;99971.25;5024015;28;19927;-85
2023/03/24 08:52:27;;;;;;;;;;;;;;;19.01;50.93;99962.97;5025118;28;20026;-85
2023/03/24 08:54:52;;;;;;;;;;;;;;;18.99;51.18;99979.59;5022208;28;20276;-86
2023/03/24 08:57:18;;;;;;;;;;;;;;;19.02;51.28;99967.28;5024454;28;20172;-86
2023/03/24 08:59:45;;;;;;;;;;;;;;;19.00;51.48;99973.03;5025135;28;19928;-87
2023/03/24 09:02:10;;;;;;;;;;;;;;;18.98;51.48;99974.47;5023948;28;20191;-86
2023/03/24 09:04:36;;;;;;;;;;;;;;;18.96;51.58;99984.88;5023527;28;19929;-86
2023/03/24 09:07:02;;;;;;;;;;;;;;;19.00;51.46;99980.38;5022318;28;19921;-86
2023/03/24 09:09:28;;;;;;;;;;;;;;;19.04;51.41;99975.91;5024739;28;20330;-86
2023/03/24 09:11:53;;;;;;;;;;;;;;;19.08;51.31;99962.50;5022484;28;20230;-86
2023/03/24 09:14:21;;;;;;;;;;;;;;;19.06;51.35;99962.81;5024450;28;20132;-86
2023/03/24 09:16:47;;;;;;;;;;;;;;;19.15;51.21;99960.06;5022776;28;19928;-85
2023/03/24 09:19:12;;;;;;;;;;;;;;;19.13;51.30;99959.59;5017092;28;19925;-87
2023/03/24 09:21:40;;;;;;;;;;;;;;;19.12;51.20;99963.44;5023732;28;20298;-87
2023/03/24 09:24:06;;;;;;;;;;;;;;;19.10;51.44;99957.53;5005948;28;20041;-85
2023/03/24 09:26:32;;;;;;;;;;;;;;;19.16;51.21;99956.22;5012744;28;20399;-85
2023/03/24 09:28:58;;;;;;;;;;;;;;;19.14;51.45;99940.25;5023593;28;20004;-86
2023/03/24 09:31:23;;;;;;;;;;;;;;;19.16;51.57;99951.59;5023351;28;20225;-85
2023/03/24 09:33:49;;;;;;;;;;;;;;;19.21;51.33;99951.44;5020433;28;19943;-85
2023/03/24 09:36:15;;;;;;;;;;;;;;;19.16;51.73;99957.03;5023183;28;20006;-85
2023/03/24 09:38:40;;;;;;;;;;;;;;;19.22;51.39;99960.38;5017919;28;20378;-86
2023/03/24 09:41:13;;;;;;;;;;;;;;;19.27;51.24;99957.47;5020125;28;19948;-86
2023/03/24 09:43:41;;;;;;;;;;;;;;;19.24;51.52;99955.41;5021569;28;19917;-87
2023/03/24 09:46:13;;;;;;;;;;;;;;;19.25;51.27;99965.16;5018391;28;19948;-87
2023/03/24 09:48:52;;;;;;;;;;;;;;;19.33;51.23;99962.41;5017227;28;20837;-86
2023/03/24 09:51:20;;;;;;;;;;;;;;;19.38;51.08;99969.56;5019243;28;19925;-85
2023/03/24 09:53:51;;;;;;;;;;;;;;;19.39;51.03;99973.91;5019185;28;20003;-87
2023/03/24 09:56:17;;;;;;;;;;;;;;;19.44;50.84;99971.00;5024263;28;19963;-86
2023/03/24 09:58:45;;;;;;;;;;;;;;;19.53;50.65;99969.03;5027641;28;19975;-86
2023/03/24 10:01:14;;;;;;;;;;;;;;;19.54;50.49;99964.41;5022678;28;20048;-87
2023/03/24 10:03:40;;;;;;;;;;;;;;;19.52;50.31;99970.16;4994931;28;19921;-86
2023/03/24 10:06:11;;;;;;;;;;;;;;;19.57;50.35;99975.47;5020913;28;19975;-87
2023/03/24 10:08:37;;;;;;;;;;;;;;;19.63;50.26;99980.69;5020016;28;19925;-85
2023/03/24 10:11:04;;;;;;;;;;;;;;;19.72;50.28;99976.00;5021601;28;19921;-86
2023/03/24 10:13:35;;;;;;;;;;;;;;;19.77;50.21;99976.63;5023066;28;20418;-85
2023/03/24 10:16:06;;;;;;;;;;;;;;;19.94;49.93;99981.19;5022930;28;19925;-85
2023/03/24 10:18:51;;;;;;;;;;;;;;;20.03;49.79;99978.41;5022463;28;20401;-85
2023/03/24 10:21:19;;;;;;;;;;;;;;;20.17;49.55;99985.19;5023403;28;20386;-85
2023/03/24 10:23:50;;;;;;;;;;;;;;;20.27;49.73;99983.97;5024338;28;19921;-84
2023/03/24 10:26:30;;;;;;;;;;;;;;;20.51;48.96;99984.16;5023620;28;19921;-87
2023/03/24 10:28:58;;;;;;;;;;;;;;;20.48;49.16;99978.59;5021900;28;19921;-86
2023/03/24 10:31:28;;;;;;;;;;;;;;;20.54;49.25;99990.06;5024410;28;19964;-86
2023/03/24 10:33:54;;;;;;;;;;;;;;;20.60;48.67;99981.34;5024510;28;19974;-85
2023/03/24 10:36:20;;;;;;;;;;;;;;;20.70;48.22;99991.84;5023982;28;20345;-86
2023/03/24 10:38:45;;;;;;;;;;;;;;;20.70;48.18;99993.78;5024574;28;19917;-84
2023/03/24 10:41:20;;;;;;;;;;;;;;;20.72;48.11;99991.50;5024658;28;19917;-87
2023/03/24 10:43:47;;;;;;;;;;;;;;;20.90;47.37;99994.88;5027134;28;20322;-85
2023/03/24 10:46:19;;;;;;;;;;;;;;;20.95;47.01;99976.38;5026652;28;20091;-86
2023/03/24 10:48:46;;;;;;;;;;;;;;;20.97;47.63;99981.50;5021568;28;19917;-86
2023/03/24 10:51:15;;;;;;;;;;;;;;;21.06;47.56;99977.56;5022828;28;19925;-85
2023/03/24 10:53:41;;;;;;;;;;;;;;;21.08;47.28;99975.28;5023731;28;19976;-86
2023/03/24 10:56:07;;;;;;;;;;;;;;;21.10;47.10;99977.66;5001260;28;19955;-86
2023/03/24 10:58:37;;;;;;;;;;;;;;;21.15;46.90;99985.63;5020591;28;20552;-85
2023/03/24 11:01:09;;;;;;;;;;;;;;;21.15;46.99;99980.16;5028040;28;20349;-85
2023/03/24 11:03:36;;;;;;;;;;;;;;;21.10;46.89;99983.91;5021147;28;19921;-86
2023/03/24 11:06:03;;;;;;;;;;;;;;;21.16;47.02;99991.88;5024721;28;19917;-86
2023/03/24 11:08:34;;;;;;;;;;;;;;;21.26;47.08;99992.28;5006302;28;19927;-86
2023/03/24 11:11:03;;;;;;;;;;;;;;;21.47;46.90;99984.00;5025511;28;20000;-86
2023/03/24 11:13:32;;;;;;;;;;;;;;;21.67;46.17;99976.88;5025760;28;19948;-85
2023/03/24 11:16:00;;;;;;;;;;;;;;;21.84;46.25;99990.25;5023725;28;19929;-86
2023/03/24 11:18:26;;;;;;;;;;;;;;;21.88;45.65;99969.34;5021890;28;20256;-87
2023/03/24 11:20:55;;;;;;;;;;;;;;;21.87;45.10;99984.13;5024935;28;19928;-85
2023/03/24 11:23:29;;;;;;;;;;;;;;;21.90;44.58;99988.91;5023429;28;20043;-84
2023/03/24 11:26:04;;;;;;;;;;;;;;;21.96;45.27;99982.09;5023027;28;19927;-88
2023/03/24 11:28:35;;;;;;;;;;;;;;;22.09;44.60;99980.19;5025899;28;19921;-85
2023/03/24 11:31:05;;;;;;;;;;;;;;;22.18;44.36;99974.56;5026699;28;20541;-86
2023/03/24 11:33:33;;;;;;;;;;;;;;;22.23;43.33;99974.31;5026042;28;19940;-87
2023/03/24 11:36:17;;;;;;;;;;;;;;;22.24;43.31;99984.09;5026504;28;20408;-86
2023/03/24 11:38:43;;;;;;;;;;;;;;;22.25;42.78;99981.03;5026751;28;19928;-85
2023/03/24 11:41:15;;;;;;;;;;;;;;;22.28;41.79;99987.75;5022036;28;20339;-86
2023/03/24 11:43:40;;;;;;;;;;;;;;;22.30;41.72;99974.56;5020637;28;19921;-86
2023/03/24 11:46:12;;;;;;;;;;;;;;;22.33;41.51;99982.03;5005533;28;20026;-85
2023/03/24 11:48:48;;;;;;;;;;;;;;;22.42;40.91;99996.34;5023149;28;19967;-85
2023/03/24 11:51:21;;;;;;;;;;;;;;;22.46;40.59;100002.72;5018071;28;20394;-85
2023/03/24 11:53:48;;;;;;;;;;;;;;;22.54;40.52;100001.78;5000658;28;20264;-88
2023/03/24 11:56:34;;;;;;;;;;;;;;;22.60;40.49;100002.31;5020680;28;19921;-84
2023/03/24 11:59:06;;;;;;;;;;;;;;;22.70;40.08;100001.03;5022149;28;19923;-85
2023/03/24 12:01:36;;;;;;;;;;;;;;;22.78;39.32;100002.81;5022039;28;19925;-86
2023/03/24 12:04:13;;;;;;;;;;;;;;;22.80;39.31;99993.16;5018911;28;19975;-85
2023/03/24 12:06:57;;;;;;;;;;;;;;;22.88;39.14;99988.69;5023145;28;19921;-85
2023/03/24 12:09:30;;;;;;;;;;;;;;;22.92;38.53;99995.03;5019198;28;19986;-85
2023/03/24 12:12:11;;;;;;;;;;;;;;;22.91;38.79;99982.53;5024298;28;19917;-85
2023/03/24 12:14:36;;;;;;;;;;;;;;;22.97;38.81;99985.81;5024863;28;19925;-85
2023/03/24 12:17:09;;;;;;;;;;;;;;;23.06;38.98;99980.97;5004123;28;19925;-86
2023/03/24 12:20:02;;;;;;;;;;;;;;;23.25;39.09;99981.09;5023075;28;20430;-86
2023/03/24 12:22:37;;;;;;;;;;;;;;;23.52;38.75;99984.91;5019363;28;20027;-86
2023/03/24 12:25:12;;;;;;;;;;;;;;;23.70;38.31;99991.63;5020709;28;19924;-85
2023/03/24 12:27:51;;;;;;;;;;;;;;;23.80;37.45;100006.69;5019281;28;19932;-86
2023/03/24 12:30:24;;;;;;;;;;;;;;;23.90;36.84;100010.84;5023613;28;19948;-86
2023/03/24 12:33:03;;;;;;;;;;;;;;;23.93;35.95;100015.59;5016578;28;20354;-85
2023/03/24 12:35:34;;;;;;;;;;;;;;;23.94;35.44;100012.50;5017490;28;19933;-85
2023/03/24 12:38:19;;;;;;;;;;;;;;;23.94;35.39;100019.91;5013856;28;19965;-85
2023/03/24 12:40:45;;;;;;;;;;;;;;;23.99;34.97;100008.69;5019508;28;20020;-85
2023/03/24 12:43:13;;;;;;;;;;;;;;;24.07;35.27;100013.19;5013103;28;19925;-85
2023/03/24 12:45:51;;;;;;;;;;;;;;;24.23;34.31;100008.44;5014303;28;19925;-87
2023/03/24 12:48:19;;;;;;;;;;;;;;;24.22;33.89;99995.91;5014704;28;19986;-86
2023/03/24 12:50:45;;;;;;;;;;;;;;;24.14;33.73;99996.94;5019976;28;19931;-87
2023/03/24 12:53:10;;;;;;;;;;;;;;;24.10;33.97;100009.75;5034840;28;19925;-87